ENML/MOL METAR and TAF weather

Enter ICAO airport designator
Station Type Date Time Source
ENML METAR 2020/07/07 09:50 UTC NOAA

ENML 070950Z 22008KT 9999 -SHRA FEW010 SCT017 BKN040 10/07 Q1006


Station Type Date Time Source
ENML Decoded METAR 2020/07/07 09:50 UTC NOAA

Molde / Aro, Norway (ENML) 62-45N 007-16E 3M
Jul 07, 2020 - 05:50 AM EDT / 2020.07.07 0950 UTC
Wind: from the SW (220 degrees) at 9 MPH (8 KT):0
Visibility: greater than 7 mile(s):0
Sky conditions: mostly cloudy
Weather: light rain showers
Temperature: 50 F (10 C)
Dew Point: 44 F (7 C)
Relative Humidity: 81%
Pressure (altimeter): 29.71 in. Hg (1006 hPa)
ob: ENML 070950Z 22008KT 9999 -SHRA FEW010 SCT017 BKN040 10/07 Q1006
cycle: 10

Station Type Date Time Source
ENML TAF UTC NOAA

Error!

Example: see airport list